Gainesville, Kentucky
Current Conditions -  °F | °C
As of 2:53 AM on Wednesday 22 Oct 2014 (Local Time) from KBWG Reporting Station
Clear Clear  
Wind Chill: 46°   Ceiling: Unl
Heat Index: 46°   Visibility: 10mi
Dew Point: 41°   Wind: 3mph
Humidity: 83%   Direction: 10°N
Pressure: 30.18"   Gusts: NA
Location:  36.7794°N, 86.196°W
Report Text: KBWG 220753Z AUTO 01003KT 10SM CLR 08/05 A3018 RMK AO2 SLP217 T00780050
Loading
Personal Weather Stations






























Interactive Weather Map
Tropical Storm Tracking
New forecast layout! Learn more

10-Day Weather Forecast

Advertisements
Track Severe Weather on mobile